createdAt,value
2023-05-10T00:00:30.878Z,8.41
2023-05-10T00:05:47.314Z,8.28
2023-05-10T00:10:53.667Z,8.16
2023-05-10T00:15:58.142Z,8.06
2023-05-10T00:21:03.056Z,7.96
2023-05-10T00:26:09.106Z,7.83
2023-05-10T00:31:16.089Z,7.70
2023-05-10T00:36:21.682Z,7.56
2023-05-10T00:41:26.476Z,7.43
2023-05-10T00:46:33.085Z,7.32
2023-05-10T00:51:38.635Z,7.21
2023-05-10T00:56:50.056Z,7.12
2023-05-10T01:01:55.223Z,7.03
2023-05-10T01:07:00.787Z,6.93
2023-05-10T01:12:08.654Z,6.81
2023-05-10T01:17:13.982Z,6.71
2023-05-10T01:22:47.530Z,6.61
2023-05-10T01:28:14.536Z,6.54
2023-05-10T01:33:38.955Z,6.47
2023-05-10T01:38:53.520Z,6.39
2023-05-10T01:44:27.237Z,6.29
2023-05-10T01:49:34.184Z,6.25
2023-05-10T01:54:40.573Z,6.19
2023-05-10T01:59:47.245Z,6.15
2023-05-10T02:04:53.050Z,6.09
2023-05-10T02:09:58.100Z,6.04
2023-05-10T02:15:03.709Z,6.00
2023-05-10T02:20:10.081Z,5.95
2023-05-10T02:25:17.067Z,5.89
2023-05-10T02:30:21.381Z,5.86
2023-05-10T02:35:34.756Z,5.83
2023-05-10T02:40:39.424Z,5.82
2023-05-10T02:45:45.232Z,5.82
2023-05-10T02:50:52.701Z,5.82
2023-05-10T02:56:00.689Z,5.81
2023-05-10T03:01:08.953Z,5.81
2023-05-10T03:06:13.034Z,5.80
2023-05-10T03:11:41.525Z,5.78
2023-05-10T03:16:58.913Z,5.76
2023-05-10T03:22:10.447Z,5.82
2023-05-10T03:27:16.138Z,5.92
2023-05-10T03:32:21.037Z,6.08
2023-05-10T03:37:26.268Z,6.28
2023-05-10T03:42:32.027Z,6.52
2023-05-10T03:47:37.313Z,6.83
2023-05-10T03:52:42.487Z,7.12
2023-05-10T03:57:47.763Z,7.51
2023-05-10T04:02:52.341Z,8.24
2023-05-10T04:07:59.098Z,10.09
2023-05-10T04:13:03.248Z,12.07
2023-05-10T04:18:08.806Z,13.73
2023-05-10T04:23:16.101Z,15.13
2023-05-10T04:28:20.042Z,16.31
2023-05-10T04:33:23.774Z,17.04
2023-05-10T04:38:28.351Z,17.83
2023-05-10T04:43:32.598Z,18.73
2023-05-10T04:48:37.701Z,19.34
2023-05-10T04:53:43.017Z,19.59
2023-05-10T04:58:48.446Z,19.51
2023-05-10T05:03:54.564Z,19.69
2023-05-10T05:08:58.444Z,18.97
2023-05-10T05:14:02.316Z,16.92
2023-05-10T05:19:07.683Z,15.25
2023-05-10T05:24:13.931Z,14.22
2023-05-10T05:29:17.955Z,13.62
2023-05-10T05:34:23.791Z,13.31
2023-05-10T05:39:27.659Z,13.24
2023-05-10T05:44:31.336Z,13.28
2023-05-10T05:49:35.997Z,13.32
2023-05-10T05:54:40.183Z,13.46
2023-05-10T05:59:45.311Z,13.62
2023-05-10T06:04:48.964Z,13.74
2023-05-10T06:09:53.549Z,13.83
2023-05-10T06:14:57.686Z,13.98
2023-05-10T06:20:02.266Z,14.08
2023-05-10T06:25:06.845Z,14.16
2023-05-10T06:30:13.448Z,14.35
2023-05-10T06:35:17.828Z,14.52
2023-05-10T06:40:22.307Z,14.76
2023-05-10T06:45:26.179Z,15.01
2023-05-10T06:50:30.232Z,15.15
2023-05-10T06:55:34.029Z,15.41
2023-05-10T07:00:41.858Z,15.59
2023-05-10T07:05:48.134Z,15.75
2023-05-10T07:10:51.882Z,15.98
2023-05-10T07:15:56.460Z,16.21
2023-05-10T07:21:00.242Z,16.33
2023-05-10T07:26:04.681Z,16.47
2023-05-10T07:31:09.283Z,16.60
2023-05-10T07:36:13.756Z,16.73
2023-05-10T07:41:17.471Z,16.96
2023-05-10T07:46:21.603Z,17.20
2023-05-10T07:51:26.562Z,17.33
2023-05-10T07:56:33.201Z,17.47
2023-05-10T08:01:36.977Z,17.67
2023-05-10T08:06:41.472Z,17.82
2023-05-10T08:11:45.219Z,17.94
2023-05-10T08:16:49.070Z,18.05
2023-05-10T08:21:52.977Z,18.29
2023-05-10T08:26:56.656Z,18.55
2023-05-10T08:32:00.368Z,18.72
2023-05-10T08:37:05.054Z,18.78
2023-05-10T08:42:09.645Z,18.78
2023-05-10T08:47:14.683Z,18.83
2023-05-10T08:52:19.338Z,19.00
2023-05-10T08:57:23.993Z,19.12
2023-05-10T09:02:28.296Z,19.21
2023-05-10T09:07:34.203Z,19.27
2023-05-10T09:12:39.004Z,19.32
2023-05-10T09:17:44.071Z,19.57
2023-05-10T09:22:48.707Z,19.71
2023-05-10T09:27:53.330Z,19.75
2023-05-10T09:32:58.378Z,19.92
2023-05-10T09:38:06.906Z,20.10
2023-05-10T09:43:12.186Z,20.17
2023-05-10T09:48:16.237Z,20.23
2023-05-10T09:53:20.156Z,20.34
2023-05-10T09:58:24.952Z,20.48
2023-05-10T10:03:30.290Z,20.53
2023-05-10T10:08:34.205Z,20.56
2023-05-10T10:13:38.528Z,20.70
2023-05-10T10:18:47.212Z,20.86
2023-05-10T10:23:51.669Z,20.96
2023-05-10T10:29:03.324Z,21.03
2023-05-10T10:34:11.491Z,21.08
2023-05-10T10:39:16.462Z,21.10
2023-05-10T10:44:26.649Z,21.21
2023-05-10T10:49:39.838Z,21.43
2023-05-10T10:54:53.830Z,21.58
2023-05-10T11:00:20.132Z,21.56
2023-05-10T11:05:45.356Z,21.76
2023-05-10T11:11:08.435Z,21.80
2023-05-10T11:16:26.252Z,21.66
2023-05-10T11:21:32.230Z,21.60
2023-05-10T11:26:37.282Z,21.73
2023-05-10T11:31:46.461Z,21.98
2023-05-10T11:36:55.177Z,22.21
2023-05-10T11:42:00.771Z,22.24
2023-05-10T11:47:05.093Z,22.36
2023-05-10T11:52:10.165Z,22.54
2023-05-10T11:57:14.048Z,22.58
2023-05-10T12:02:18.588Z,22.51
2023-05-10T12:07:22.483Z,22.29
2023-05-10T12:12:26.476Z,22.28
2023-05-10T12:17:31.374Z,22.51
2023-05-10T12:22:36.291Z,22.50
2023-05-10T12:27:40.108Z,22.56
2023-05-10T12:32:45.807Z,22.79
2023-05-10T12:37:49.609Z,22.98
2023-05-10T12:42:53.968Z,23.05
2023-05-10T12:47:58.133Z,23.03
2023-05-10T12:53:01.857Z,23.14
2023-05-10T12:58:06.148Z,23.26
2023-05-10T13:03:10.027Z,23.40
2023-05-10T13:08:14.816Z,23.33
2023-05-10T13:13:19.469Z,23.32
2023-05-10T13:18:23.551Z,23.41
2023-05-10T13:23:27.578Z,23.42
2023-05-10T13:28:31.970Z,23.37
2023-05-10T13:33:35.996Z,23.65
2023-05-10T13:38:40.879Z,23.53
2023-05-10T13:43:44.577Z,23.24
2023-05-10T13:48:48.353Z,22.78
2023-05-10T13:53:53.054Z,22.48
2023-05-10T13:59:00.243Z,22.46
2023-05-10T14:04:04.779Z,22.53
2023-05-10T14:09:09.557Z,22.43
2023-05-10T14:14:14.675Z,22.29
2023-05-10T14:19:18.843Z,22.41
2023-05-10T14:24:22.567Z,22.52
2023-05-10T14:29:26.358Z,22.49
2023-05-10T14:34:31.382Z,22.44
2023-05-10T14:39:35.517Z,22.31
2023-05-10T14:44:39.311Z,22.11
2023-05-10T14:49:43.082Z,22.12
2023-05-10T14:54:46.859Z,22.08
2023-05-10T14:59:50.562Z,22.08
2023-05-10T15:04:54.887Z,22.12
2023-05-10T15:09:58.922Z,22.28
2023-05-10T15:15:03.555Z,22.33
2023-05-10T15:20:08.203Z,22.21
2023-05-10T15:25:12.085Z,22.06
2023-05-10T15:30:16.399Z,22.01
2023-05-10T15:35:20.316Z,22.27
2023-05-10T15:40:24.915Z,22.38
2023-05-10T15:45:30.450Z,22.20
2023-05-10T15:50:34.908Z,21.97
2023-05-10T15:55:38.811Z,21.82
2023-05-10T16:00:42.578Z,21.56
2023-05-10T16:05:47.138Z,21.36
2023-05-10T16:10:54.670Z,21.17
2023-05-10T16:15:59.518Z,20.99
2023-05-10T16:21:03.413Z,20.86
2023-05-10T16:26:07.868Z,20.84
2023-05-10T16:31:14.296Z,20.79
2023-05-10T16:36:18.182Z,20.71
2023-05-10T16:41:21.989Z,20.56
2023-05-10T16:46:25.839Z,20.45
2023-05-10T16:51:29.854Z,20.60
2023-05-10T16:56:33.530Z,20.81
2023-05-10T17:01:37.259Z,20.79
2023-05-10T17:06:40.936Z,20.53
2023-05-10T17:11:44.657Z,20.21
2023-05-10T17:16:48.777Z,19.94
2023-05-10T17:21:52.603Z,19.70
2023-05-10T17:26:57.665Z,19.45
2023-05-10T17:32:01.804Z,19.20
2023-05-10T17:37:06.284Z,18.93
2023-05-10T17:42:10.409Z,18.89
2023-05-10T17:47:14.219Z,19.14
2023-05-10T17:52:17.868Z,19.36
2023-05-10T17:57:21.862Z,19.16
2023-05-10T18:02:25.725Z,18.79
2023-05-10T18:07:32.725Z,18.45
2023-05-10T18:12:36.452Z,18.14
2023-05-10T18:17:40.238Z,17.91
2023-05-10T18:22:44.472Z,17.68
2023-05-10T18:27:48.574Z,17.48
2023-05-10T18:32:52.821Z,17.31
2023-05-10T18:37:56.995Z,17.13
2023-05-10T18:43:01.248Z,16.94
2023-05-10T18:48:06.603Z,16.75
2023-05-10T18:53:11.777Z,16.56
2023-05-10T18:58:15.605Z,16.37
2023-05-10T19:03:21.859Z,16.19
2023-05-10T19:08:26.455Z,16.00
2023-05-10T19:13:31.044Z,15.83
2023-05-10T19:18:35.027Z,15.66
2023-05-10T19:23:42.984Z,15.53
2023-05-10T19:28:48.852Z,15.41
2023-05-10T19:33:56.296Z,15.28
2023-05-10T19:39:01.983Z,15.13
2023-05-10T19:44:06.843Z,14.99
2023-05-10T19:49:11.416Z,14.84
2023-05-10T19:54:16.271Z,14.67
2023-05-10T19:59:21.140Z,14.46
2023-05-10T20:04:27.366Z,14.26
2023-05-10T20:09:31.432Z,14.03
2023-05-10T20:14:35.549Z,13.76
2023-05-10T20:19:40.153Z,13.64
2023-05-10T20:24:45.164Z,13.57
2023-05-10T20:29:49.016Z,13.55
2023-05-10T20:34:54.582Z,13.57
2023-05-10T20:39:59.602Z,13.61
2023-05-10T20:45:03.901Z,13.63
2023-05-10T20:50:08.343Z,13.61
2023-05-10T20:55:12.155Z,13.57
2023-05-10T21:00:16.693Z,13.54
2023-05-10T21:05:20.990Z,13.54
2023-05-10T21:10:37.295Z,13.55
2023-05-10T21:15:44.081Z,13.60
2023-05-10T21:20:47.898Z,13.67
2023-05-10T21:25:52.049Z,13.72
2023-05-10T21:30:56.347Z,13.73
2023-05-10T21:36:00.308Z,13.69
2023-05-10T21:41:09.024Z,13.63
2023-05-10T21:46:14.511Z,13.57
2023-05-10T21:51:18.540Z,13.49
2023-05-10T21:56:22.748Z,13.44
2023-05-10T22:01:27.842Z,13.40
2023-05-10T22:06:32.867Z,13.37
2023-05-10T22:11:37.278Z,13.35
2023-05-10T22:16:41.025Z,13.32
2023-05-10T22:21:44.885Z,13.27
2023-05-10T22:26:48.597Z,13.24
2023-05-10T22:31:52.268Z,13.22
2023-05-10T22:36:56.641Z,13.20
2023-05-10T22:42:00.649Z,13.20
2023-05-10T22:47:06.929Z,13.17
2023-05-10T22:52:11.608Z,13.13
2023-05-10T22:57:16.593Z,13.09
2023-05-10T23:02:20.815Z,13.04
2023-05-10T23:07:24.907Z,13.01
2023-05-10T23:12:28.668Z,12.97
2023-05-10T23:17:33.758Z,12.87
2023-05-10T23:22:38.409Z,12.73
2023-05-10T23:27:42.094Z,12.57
2023-05-10T23:32:45.837Z,12.43
2023-05-10T23:37:50.056Z,12.33
2023-05-10T23:42:54.035Z,12.26
2023-05-10T23:47:57.971Z,12.16
2023-05-10T23:53:02.252Z,12.02
2023-05-10T23:58:06.470Z,11.85
